sensor_id;sensor_type;location;lat;lon;timestamp;pressure;altitude;pressure_sealevel;temperature;humidity
60920;BME280;59039;52.108;19.942;2022-08-18T00:00:01;100294.67;;;22.40;78.10
60920;BME280;59039;52.108;19.942;2022-08-18T00:02:28;100302.72;;;22.38;78.00
60920;BME280;59039;52.108;19.942;2022-08-18T00:04:55;100313.50;;;22.38;78.01
60920;BME280;59039;52.108;19.942;2022-08-18T00:10:08;100318.42;;;22.36;78.11
60920;BME280;59039;52.108;19.942;2022-08-18T00:12:54;100320.72;;;22.34;78.07
60920;BME280;59039;52.108;19.942;2022-08-18T00:15:22;100323.64;;;22.32;77.86
60920;BME280;59039;52.108;19.942;2022-08-18T00:17:48;100331.09;;;22.29;77.70
60920;BME280;59039;52.108;19.942;2022-08-18T00:20:19;100333.42;;;22.27;77.74
60920;BME280;59039;52.108;19.942;2022-08-18T00:22:46;100333.81;;;22.26;77.80
60920;BME280;59039;52.108;19.942;2022-08-18T00:25:14;100330.98;;;22.25;77.76
60920;BME280;59039;52.108;19.942;2022-08-18T00:27:40;100334.15;;;22.24;77.89
60920;BME280;59039;52.108;19.942;2022-08-18T00:30:10;100340.94;;;22.23;77.84
60920;BME280;59039;52.108;19.942;2022-08-18T00:32:40;100342.22;;;22.21;77.85
60920;BME280;59039;52.108;19.942;2022-08-18T00:35:09;100343.41;;;22.20;77.79
60920;BME280;59039;52.108;19.942;2022-08-18T00:37:35;100340.84;;;22.18;77.62
60920;BME280;59039;52.108;19.942;2022-08-18T00:40:01;100346.10;;;22.17;77.85
60920;BME280;59039;52.108;19.942;2022-08-18T00:42:28;100352.74;;;22.15;77.98
60920;BME280;59039;52.108;19.942;2022-08-18T00:44:54;100357.15;;;22.14;77.96
60920;BME280;59039;52.108;19.942;2022-08-18T00:47:20;100356.16;;;22.12;77.95
60920;BME280;59039;52.108;19.942;2022-08-18T00:49:47;100358.34;;;22.11;77.95
60920;BME280;59039;52.108;19.942;2022-08-18T00:52:16;100357.46;;;22.09;77.94
60920;BME280;59039;52.108;19.942;2022-08-18T00:54:43;100357.73;;;22.07;77.99
60920;BME280;59039;52.108;19.942;2022-08-18T00:57:14;100360.65;;;22.07;78.03
60920;BME280;59039;52.108;19.942;2022-08-18T00:59:53;100357.95;;;22.05;77.91
60920;BME280;59039;52.108;19.942;2022-08-18T01:02:27;100359.65;;;22.02;77.92
60920;BME280;59039;52.108;19.942;2022-08-18T01:05:02;100360.35;;;22.00;77.95
60920;BME280;59039;52.108;19.942;2022-08-18T01:07:39;100353.72;;;21.99;78.29
60920;BME280;59039;52.108;19.942;2022-08-18T01:10:05;100355.27;;;21.97;78.17
60920;BME280;59039;52.108;19.942;2022-08-18T01:12:31;100363.13;;;21.97;78.01
60920;BME280;59039;52.108;19.942;2022-08-18T01:14:57;100359.86;;;21.95;78.30
60920;BME280;59039;52.108;19.942;2022-08-18T01:17:24;100358.48;;;21.93;78.38
60920;BME280;59039;52.108;19.942;2022-08-18T01:19:49;100357.65;;;21.91;78.25
60920;BME280;59039;52.108;19.942;2022-08-18T01:25:07;100360.25;;;21.84;78.30
60920;BME280;59039;52.108;19.942;2022-08-18T01:27:33;100357.51;;;21.81;78.22
60920;BME280;59039;52.108;19.942;2022-08-18T01:30:05;100358.00;;;21.79;78.32
60920;BME280;59039;52.108;19.942;2022-08-18T01:32:31;100357.29;;;21.75;78.62
60920;BME280;59039;52.108;19.942;2022-08-18T01:34:56;100354.17;;;21.71;78.47
60920;BME280;59039;52.108;19.942;2022-08-18T01:37:23;100353.00;;;21.65;78.69
60920;BME280;59039;52.108;19.942;2022-08-18T01:39:49;100352.96;;;21.57;78.95
60920;BME280;59039;52.108;19.942;2022-08-18T01:42:15;100350.27;;;21.47;79.23
60920;BME280;59039;52.108;19.942;2022-08-18T01:44:42;100347.92;;;21.40;79.09
60920;BME280;59039;52.108;19.942;2022-08-18T01:47:09;100345.91;;;21.36;79.18
60920;BME280;59039;52.108;19.942;2022-08-18T01:49:36;100347.81;;;21.33;79.26
60920;BME280;59039;52.108;19.942;2022-08-18T01:52:01;100348.52;;;21.31;79.28
60920;BME280;59039;52.108;19.942;2022-08-18T01:54:27;100350.13;;;21.30;79.29
60920;BME280;59039;52.108;19.942;2022-08-18T01:56:52;100352.10;;;21.29;79.49
60920;BME280;59039;52.108;19.942;2022-08-18T01:59:28;100353.87;;;21.27;79.61
60920;BME280;59039;52.108;19.942;2022-08-18T02:01:56;100354.73;;;21.25;79.72
60920;BME280;59039;52.108;19.942;2022-08-18T02:04:25;100352.70;;;21.21;79.46
60920;BME280;59039;52.108;19.942;2022-08-18T02:06:53;100356.77;;;21.18;79.55
60920;BME280;59039;52.108;19.942;2022-08-18T02:09:18;100355.75;;;21.16;79.59
60920;BME280;59039;52.108;19.942;2022-08-18T02:11:43;100356.34;;;21.13;79.48
60920;BME280;59039;52.108;19.942;2022-08-18T02:14:08;100359.70;;;21.12;79.42
60920;BME280;59039;52.108;19.942;2022-08-18T02:16:34;100357.69;;;21.09;79.31
60920;BME280;59039;52.108;19.942;2022-08-18T02:19:00;100359.00;;;21.06;79.54
60920;BME280;59039;52.108;19.942;2022-08-18T02:21:28;100357.14;;;21.02;79.67
60920;BME280;59039;52.108;19.942;2022-08-18T02:23:53;100356.37;;;20.99;79.72
60920;BME280;59039;52.108;19.942;2022-08-18T02:26:19;100359.11;;;20.97;79.51
60920;BME280;59039;52.108;19.942;2022-08-18T02:28:45;100355.14;;;20.92;79.74
60920;BME280;59039;52.108;19.942;2022-08-18T02:31:14;100351.79;;;20.86;80.49
60920;BME280;59039;52.108;19.942;2022-08-18T02:33:40;100350.14;;;20.80;80.26
60920;BME280;59039;52.108;19.942;2022-08-18T02:36:06;100353.77;;;20.76;80.11
60920;BME280;59039;52.108;19.942;2022-08-18T02:38:32;100352.23;;;20.72;79.90
60920;BME280;59039;52.108;19.942;2022-08-18T02:41:00;100353.59;;;20.69;80.16
60920;BME280;59039;52.108;19.942;2022-08-18T02:43:26;100351.01;;;20.66;80.22
60920;BME280;59039;52.108;19.942;2022-08-18T02:45:52;100349.41;;;20.64;80.23
60920;BME280;59039;52.108;19.942;2022-08-18T02:48:18;100356.25;;;20.63;80.63
60920;BME280;59039;52.108;19.942;2022-08-18T02:50:43;100355.55;;;20.60;80.79
60920;BME280;59039;52.108;19.942;2022-08-18T02:53:08;100351.78;;;20.57;80.94
60920;BME280;59039;52.108;19.942;2022-08-18T02:55:34;100353.52;;;20.55;80.48
60920;BME280;59039;52.108;19.942;2022-08-18T02:57:59;100356.08;;;20.51;80.63
60920;BME280;59039;52.108;19.942;2022-08-18T03:00:24;100356.17;;;20.50;80.80
60920;BME280;59039;52.108;19.942;2022-08-18T03:02:50;100351.67;;;20.47;80.78
60920;BME280;59039;52.108;19.942;2022-08-18T03:05:17;100346.35;;;20.45;80.66
60920;BME280;59039;52.108;19.942;2022-08-18T03:07:43;100343.35;;;20.43;80.59
60920;BME280;59039;52.108;19.942;2022-08-18T03:10:10;100344.61;;;20.39;80.79
60920;BME280;59039;52.108;19.942;2022-08-18T03:12:35;100346.84;;;20.35;80.83
60920;BME280;59039;52.108;19.942;2022-08-18T03:15:01;100350.75;;;20.32;80.93
60920;BME280;59039;52.108;19.942;2022-08-18T03:17:26;100355.61;;;20.29;80.98
60920;BME280;59039;52.108;19.942;2022-08-18T03:19:52;100360.89;;;20.25;81.02
60920;BME280;59039;52.108;19.942;2022-08-18T03:22:19;100358.06;;;20.23;81.10
60920;BME280;59039;52.108;19.942;2022-08-18T03:24:44;100357.30;;;20.21;81.67
60920;BME280;59039;52.108;19.942;2022-08-18T03:27:10;100359.90;;;20.19;81.54
60920;BME280;59039;52.108;19.942;2022-08-18T03:29:35;100359.19;;;20.18;81.44
60920;BME280;59039;52.108;19.942;2022-08-18T03:32:05;100365.31;;;20.16;81.35
60920;BME280;59039;52.108;19.942;2022-08-18T03:34:31;100362.52;;;20.14;81.82
60920;BME280;59039;52.108;19.942;2022-08-18T03:36:57;100365.42;;;20.12;81.70
60920;BME280;59039;52.108;19.942;2022-08-18T03:39:22;100366.22;;;20.11;81.78
60920;BME280;59039;52.108;19.942;2022-08-18T03:41:50;100367.48;;;20.12;82.16
60920;BME280;59039;52.108;19.942;2022-08-18T03:44:15;100366.05;;;20.11;81.75
60920;BME280;59039;52.108;19.942;2022-08-18T03:46:42;100365.96;;;20.11;81.85
60920;BME280;59039;52.108;19.942;2022-08-18T03:49:08;100371.36;;;20.10;82.00
60920;BME280;59039;52.108;19.942;2022-08-18T03:51:34;100374.45;;;20.10;82.13
60920;BME280;59039;52.108;19.942;2022-08-18T03:54:01;100372.83;;;20.11;82.11
60920;BME280;59039;52.108;19.942;2022-08-18T03:56:32;100370.76;;;20.12;82.22
60920;BME280;59039;52.108;19.942;2022-08-18T03:59:01;100371.42;;;20.14;82.29
60920;BME280;59039;52.108;19.942;2022-08-18T04:01:30;100369.73;;;20.15;82.07
60920;BME280;59039;52.108;19.942;2022-08-18T04:03:59;100372.02;;;20.16;82.19
60920;BME280;59039;52.108;19.942;2022-08-18T04:06:27;100370.91;;;20.17;82.44
60920;BME280;59039;52.108;19.942;2022-08-18T04:08:54;100373.83;;;20.20;82.62
60920;BME280;59039;52.108;19.942;2022-08-18T04:11:21;100374.66;;;20.23;82.47
60920;BME280;59039;52.108;19.942;2022-08-18T04:13:47;100382.03;;;20.27;82.40
60920;BME280;59039;52.108;19.942;2022-08-18T04:16:12;100386.80;;;20.30;82.31
60920;BME280;59039;52.108;19.942;2022-08-18T04:18:37;100383.70;;;20.32;82.68
60920;BME280;59039;52.108;19.942;2022-08-18T04:21:07;100377.80;;;20.35;82.56
60920;BME280;59039;52.108;19.942;2022-08-18T04:23:34;100373.53;;;20.38;82.61
60920;BME280;59039;52.108;19.942;2022-08-18T04:26:00;100378.70;;;20.41;82.47
60920;BME280;59039;52.108;19.942;2022-08-18T04:28:27;100381.13;;;20.46;82.59
60920;BME280;59039;52.108;19.942;2022-08-18T04:30:53;100384.49;;;20.51;82.57
60920;BME280;59039;52.108;19.942;2022-08-18T04:33:22;100387.24;;;20.56;82.49
60920;BME280;59039;52.108;19.942;2022-08-18T04:35:51;100387.77;;;20.61;82.31
60920;BME280;59039;52.108;19.942;2022-08-18T04:38:17;100386.10;;;20.65;82.18
60920;BME280;59039;52.108;19.942;2022-08-18T04:40:45;100387.94;;;20.69;82.22
60920;BME280;59039;52.108;19.942;2022-08-18T04:43:10;100388.98;;;20.73;82.08
60920;BME280;59039;52.108;19.942;2022-08-18T04:45:36;100392.70;;;20.77;81.99
60920;BME280;59039;52.108;19.942;2022-08-18T04:48:02;100391.21;;;20.82;81.96
60920;BME280;59039;52.108;19.942;2022-08-18T04:50:27;100394.45;;;20.88;81.85
60920;BME280;59039;52.108;19.942;2022-08-18T04:52:52;100392.20;;;20.93;81.75
60920;BME280;59039;52.108;19.942;2022-08-18T04:55:18;100391.73;;;20.99;81.86
60920;BME280;59039;52.108;19.942;2022-08-18T04:57:43;100391.98;;;21.06;81.95
60920;BME280;59039;52.108;19.942;2022-08-18T05:00:09;100394.27;;;21.12;81.84
60920;BME280;59039;52.108;19.942;2022-08-18T05:02:34;100390.61;;;21.15;81.62
60920;BME280;59039;52.108;19.942;2022-08-18T05:04:59;100391.94;;;21.21;81.65
60920;BME280;59039;52.108;19.942;2022-08-18T05:07:25;100390.60;;;21.28;81.64
60920;BME280;59039;52.108;19.942;2022-08-18T05:09:50;100392.92;;;21.35;81.61
60920;BME280;59039;52.108;19.942;2022-08-18T05:12:26;100393.17;;;21.42;81.39
60920;BME280;59039;52.108;19.942;2022-08-18T05:14:51;100394.47;;;21.51;81.38
60920;BME280;59039;52.108;19.942;2022-08-18T05:17:16;100396.83;;;21.61;81.24
60920;BME280;59039;52.108;19.942;2022-08-18T05:19:42;100401.23;;;21.69;81.05
60920;BME280;59039;52.108;19.942;2022-08-18T05:22:07;100404.45;;;21.77;81.00
60920;BME280;59039;52.108;19.942;2022-08-18T05:24:32;100406.66;;;21.85;80.70
60920;BME280;59039;52.108;19.942;2022-08-18T05:26:58;100409.20;;;21.94;80.52
60920;BME280;59039;52.108;19.942;2022-08-18T05:29:23;100410.63;;;22.03;80.29
60920;BME280;59039;52.108;19.942;2022-08-18T05:31:51;100409.44;;;22.11;80.04
60920;BME280;59039;52.108;19.942;2022-08-18T05:34:18;100405.30;;;22.21;79.75
60920;BME280;59039;52.108;19.942;2022-08-18T05:36:53;100406.15;;;22.28;79.62
60920;BME280;59039;52.108;19.942;2022-08-18T05:39:23;100406.63;;;22.38;79.19
60920;BME280;59039;52.108;19.942;2022-08-18T05:41:53;100407.73;;;22.45;78.98
60920;BME280;59039;52.108;19.942;2022-08-18T05:44:32;100401.60;;;22.53;78.78
60920;BME280;59039;52.108;19.942;2022-08-18T05:47:04;100401.30;;;22.63;78.69
60920;BME280;59039;52.108;19.942;2022-08-18T05:49:29;100400.35;;;22.72;78.56
60920;BME280;59039;52.108;19.942;2022-08-18T05:52:02;100403.42;;;22.80;78.39
60920;BME280;59039;52.108;19.942;2022-08-18T05:54:38;100400.45;;;22.89;78.29
60920;BME280;59039;52.108;19.942;2022-08-18T05:57:10;100403.09;;;22.98;77.95
60920;BME280;59039;52.108;19.942;2022-08-18T05:59:39;100399.44;;;23.06;77.78
60920;BME280;59039;52.108;19.942;2022-08-18T06:04:38;100398.00;;;23.26;77.53
60920;BME280;59039;52.108;19.942;2022-08-18T06:07:07;100394.88;;;23.37;77.35
60920;BME280;59039;52.108;19.942;2022-08-18T06:09:49;100390.70;;;23.47;77.17
60920;BME280;59039;52.108;19.942;2022-08-18T06:12:35;100396.36;;;23.59;77.10
60920;BME280;59039;52.108;19.942;2022-08-18T06:15:12;100399.17;;;23.71;76.19
60920;BME280;59039;52.108;19.942;2022-08-18T06:26:08;100397.36;;;24.16;74.75
60920;BME280;59039;52.108;19.942;2022-08-18T06:28:50;100401.10;;;24.24;75.12
60920;BME280;59039;52.108;19.942;2022-08-18T06:31:43;100399.55;;;24.37;75.34
60920;BME280;59039;52.108;19.942;2022-08-18T06:34:21;100396.48;;;24.53;74.97
60920;BME280;59039;52.108;19.942;2022-08-18T06:37:10;100399.65;;;24.67;75.11
60920;BME280;59039;52.108;19.942;2022-08-18T06:39:46;100393.27;;;24.78;72.70
60920;BME280;59039;52.108;19.942;2022-08-18T06:42:11;100397.83;;;24.92;74.17
60920;BME280;59039;52.108;19.942;2022-08-18T06:44:46;100396.38;;;25.04;73.19
60920;BME280;59039;52.108;19.942;2022-08-18T06:53:18;100402.95;;;25.45;72.21
60920;BME280;59039;52.108;19.942;2022-08-18T06:55:46;100405.77;;;25.58;71.79
60920;BME280;59039;52.108;19.942;2022-08-18T07:00:40;100412.95;;;25.78;71.87
60920;BME280;59039;52.108;19.942;2022-08-18T07:03:12;100414.64;;;25.88;70.36
60920;BME280;59039;52.108;19.942;2022-08-18T07:06:02;100411.06;;;25.99;70.62
60920;BME280;59039;52.108;19.942;2022-08-18T07:08:38;100414.79;;;26.12;70.47
60920;BME280;59039;52.108;19.942;2022-08-18T07:11:18;100413.17;;;26.23;70.39
60920;BME280;59039;52.108;19.942;2022-08-18T07:13:46;100417.89;;;26.35;69.61
60920;BME280;59039;52.108;19.942;2022-08-18T07:18:53;100413.41;;;26.64;69.17
60920;BME280;59039;52.108;19.942;2022-08-18T07:21:30;100417.27;;;26.80;68.53
60920;BME280;59039;52.108;19.942;2022-08-18T07:24:02;100417.88;;;26.97;67.73
60920;BME280;59039;52.108;19.942;2022-08-18T07:26:29;100425.73;;;27.13;67.54
60920;BME280;59039;52.108;19.942;2022-08-18T07:28:54;100423.65;;;27.26;66.11
60920;BME280;59039;52.108;19.942;2022-08-18T07:34:02;100425.59;;;27.52;65.42
60920;BME280;59039;52.108;19.942;2022-08-18T07:36:32;100426.15;;;27.66;64.99
60920;BME280;59039;52.108;19.942;2022-08-18T07:39:06;100420.11;;;27.76;64.60
60920;BME280;59039;52.108;19.942;2022-08-18T07:41:41;100417.63;;;27.85;62.83
60920;BME280;59039;52.108;19.942;2022-08-18T07:47:58;100415.42;;;28.07;64.14
60920;BME280;59039;52.108;19.942;2022-08-18T07:50:26;100420.73;;;28.19;63.56
60920;BME280;59039;52.108;19.942;2022-08-18T07:53:15;100417.73;;;28.24;61.07
60920;BME280;59039;52.108;19.942;2022-08-18T07:55:46;100417.48;;;28.31;62.50
60920;BME280;59039;52.108;19.942;2022-08-18T07:58:25;100416.89;;;28.38;62.23
60920;BME280;59039;52.108;19.942;2022-08-18T08:01:00;100413.00;;;28.43;61.62
60920;BME280;59039;52.108;19.942;2022-08-18T08:06:23;100412.30;;;28.55;61.05
60920;BME280;59039;52.108;19.942;2022-08-18T08:11:51;100423.92;;;28.53;60.03
60920;BME280;59039;52.108;19.942;2022-08-18T08:14:42;100430.74;;;28.53;59.41
60920;BME280;59039;52.108;19.942;2022-08-18T08:17:24;100432.54;;;28.54;59.67
60920;BME280;59039;52.108;19.942;2022-08-18T08:20:12;100428.84;;;28.53;59.33
60920;BME280;59039;52.108;19.942;2022-08-18T08:23:00;100430.09;;;28.56;58.99
60920;BME280;59039;52.108;19.942;2022-08-18T08:34:09;100425.05;;;28.76;57.79
60920;BME280;59039;52.108;19.942;2022-08-18T08:36:41;100423.05;;;28.80;56.40
60920;BME280;59039;52.108;19.942;2022-08-18T08:39:21;100420.92;;;28.84;57.32
60920;BME280;59039;52.108;19.942;2022-08-18T08:41:51;100419.77;;;28.85;57.16
60920;BME280;59039;52.108;19.942;2022-08-18T08:44:29;100421.55;;;28.85;57.23
60920;BME280;59039;52.108;19.942;2022-08-18T08:47:11;100424.40;;;28.82;56.62
60920;BME280;59039;52.108;19.942;2022-08-18T08:49:43;100424.86;;;28.81;56.50
60920;BME280;59039;52.108;19.942;2022-08-18T08:52:20;100419.53;;;28.80;56.62
60920;BME280;59039;52.108;19.942;2022-08-18T08:54:53;100415.26;;;28.77;57.06
60920;BME280;59039;52.108;19.942;2022-08-18T08:57:28;100411.90;;;28.73;57.12
60920;BME280;59039;52.108;19.942;2022-08-18T08:59:56;100417.75;;;28.64;56.66
60920;BME280;59039;52.108;19.942;2022-08-18T09:05:18;100411.09;;;28.48;56.26
60920;BME280;59039;52.108;19.942;2022-08-18T09:16:44;100404.91;;;28.17;57.52
60920;BME280;59039;52.108;19.942;2022-08-18T09:24:37;100403.41;;;27.95;57.76
60920;BME280;59039;52.108;19.942;2022-08-18T09:29:46;100406.00;;;27.84;57.55
60920;BME280;59039;52.108;19.942;2022-08-18T09:37:47;100408.16;;;27.65;57.38
60920;BME280;59039;52.108;19.942;2022-08-18T09:40:18;100407.14;;;27.63;57.84
60920;BME280;59039;52.108;19.942;2022-08-18T09:42:53;100408.11;;;27.59;57.25
60920;BME280;59039;52.108;19.942;2022-08-18T09:50:33;100409.30;;;27.53;57.66
60920;BME280;59039;52.108;19.942;2022-08-18T09:55:57;100410.76;;;27.47;57.20
60920;BME280;59039;52.108;19.942;2022-08-18T10:01:21;100410.67;;;27.45;57.06
60920;BME280;59039;52.108;19.942;2022-08-18T10:04:25;100410.27;;;27.42;56.44
60920;BME280;59039;52.108;19.942;2022-08-18T10:06:51;100410.86;;;27.39;57.42
60920;BME280;59039;52.108;19.942;2022-08-18T10:09:32;100412.02;;;27.38;57.52
60920;BME280;59039;52.108;19.942;2022-08-18T10:12:27;100410.89;;;27.35;56.74
60920;BME280;59039;52.108;19.942;2022-08-18T10:15:30;100409.70;;;27.32;57.66
60920;BME280;59039;52.108;19.942;2022-08-18T10:21:09;100405.34;;;27.33;57.88
60920;BME280;59039;52.108;19.942;2022-08-18T10:23:49;100403.73;;;27.32;57.57
60920;BME280;59039;52.108;19.942;2022-08-18T10:28:58;100403.04;;;27.31;57.56
60920;BME280;59039;52.108;19.942;2022-08-18T10:31:26;100404.21;;;27.31;57.43
60920;BME280;59039;52.108;19.942;2022-08-18T10:34:11;100404.77;;;27.32;57.31
60920;BME280;59039;52.108;19.942;2022-08-18T10:36:57;100406.96;;;27.33;57.20
60920;BME280;59039;52.108;19.942;2022-08-18T10:39:44;100405.36;;;27.35;56.92
60920;BME280;59039;52.108;19.942;2022-08-18T10:42:33;100402.35;;;27.36;57.06
60920;BME280;59039;52.108;19.942;2022-08-18T10:47:34;100403.95;;;27.40;57.75
60920;BME280;59039;52.108;19.942;2022-08-18T10:50:05;100406.83;;;27.43;57.78
60920;BME280;59039;52.108;19.942;2022-08-18T10:52:48;100403.88;;;27.45;57.38
60920;BME280;59039;52.108;19.942;2022-08-18T10:55:47;100405.90;;;27.46;56.86
60920;BME280;59039;52.108;19.942;2022-08-18T10:58:38;100401.38;;;27.47;56.45
60920;BME280;59039;52.108;19.942;2022-08-18T11:06:25;100397.98;;;27.48;55.77
60920;BME280;59039;52.108;19.942;2022-08-18T11:08:54;100391.39;;;27.47;56.06
60920;BME280;59039;52.108;19.942;2022-08-18T11:11:24;100386.27;;;27.49;56.35
60920;BME280;59039;52.108;19.942;2022-08-18T11:19:28;100377.17;;;27.51;56.33
60920;BME280;59039;52.108;19.942;2022-08-18T11:22:00;100379.40;;;27.51;56.54
60920;BME280;59039;52.108;19.942;2022-08-18T11:24:27;100381.14;;;27.51;56.19
60920;BME280;59039;52.108;19.942;2022-08-18T11:26:56;100384.83;;;27.50;56.36
60920;BME280;59039;52.108;19.942;2022-08-18T11:29:29;100383.75;;;27.50;56.65
60920;BME280;59039;52.108;19.942;2022-08-18T11:32:01;100381.30;;;27.49;56.50
60920;BME280;59039;52.108;19.942;2022-08-18T11:34:38;100377.77;;;27.49;56.16
60920;BME280;59039;52.108;19.942;2022-08-18T11:37:22;100373.40;;;27.46;55.67
60920;BME280;59039;52.108;19.942;2022-08-18T11:39:50;100370.54;;;27.44;54.87
60920;BME280;59039;52.108;19.942;2022-08-18T11:42:18;100365.18;;;27.43;55.52
60920;BME280;59039;52.108;19.942;2022-08-18T11:44:44;100358.59;;;27.42;55.22
60920;BME280;59039;52.108;19.942;2022-08-18T11:47:17;100361.38;;;27.42;55.98
60920;BME280;59039;52.108;19.942;2022-08-18T11:49:52;100365.09;;;27.43;56.22
60920;BME280;59039;52.108;19.942;2022-08-18T11:52:22;100364.58;;;27.43;55.38
60920;BME280;59039;52.108;19.942;2022-08-18T11:54:48;100361.73;;;27.44;55.90
60920;BME280;59039;52.108;19.942;2022-08-18T11:57:50;100363.45;;;27.44;55.96
60920;BME280;59039;52.108;19.942;2022-08-18T12:03:30;100359.73;;;27.45;55.46
60920;BME280;59039;52.108;19.942;2022-08-18T12:05:59;100357.66;;;27.46;55.50
60920;BME280;59039;52.108;19.942;2022-08-18T12:08:36;100355.66;;;27.46;55.54
60920;BME280;59039;52.108;19.942;2022-08-18T12:11:14;100356.16;;;27.47;55.79
60920;BME280;59039;52.108;19.942;2022-08-18T12:13:44;100354.10;;;27.48;55.51
60920;BME280;59039;52.108;19.942;2022-08-18T12:16:13;100345.96;;;27.49;55.59
60920;BME280;59039;52.108;19.942;2022-08-18T12:18:39;100348.31;;;27.50;55.69
60920;BME280;59039;52.108;19.942;2022-08-18T12:21:05;100350.66;;;27.52;55.49
60920;BME280;59039;52.108;19.942;2022-08-18T12:23:32;100346.92;;;27.52;55.54
60920;BME280;59039;52.108;19.942;2022-08-18T12:25:57;100339.95;;;27.52;54.93
60920;BME280;59039;52.108;19.942;2022-08-18T12:28:23;100335.59;;;27.52;54.40
60920;BME280;59039;52.108;19.942;2022-08-18T12:30:48;100338.50;;;27.52;53.93
60920;BME280;59039;52.108;19.942;2022-08-18T12:33:14;100331.14;;;27.53;54.40
60920;BME280;59039;52.108;19.942;2022-08-18T12:35:39;100323.38;;;27.53;54.21
60920;BME280;59039;52.108;19.942;2022-08-18T12:38:04;100324.48;;;27.53;53.82
60920;BME280;59039;52.108;19.942;2022-08-18T12:40:30;100324.44;;;27.55;54.35
60920;BME280;59039;52.108;19.942;2022-08-18T12:42:55;100324.56;;;27.56;54.07
60920;BME280;59039;52.108;19.942;2022-08-18T12:45:21;100323.34;;;27.57;54.11
60920;BME280;59039;52.108;19.942;2022-08-18T12:47:47;100321.22;;;27.57;54.07
60920;BME280;59039;52.108;19.942;2022-08-18T12:50:12;100314.25;;;27.58;53.88
60920;BME280;59039;52.108;19.942;2022-08-18T12:52:38;100312.96;;;27.58;52.81
60920;BME280;59039;52.108;19.942;2022-08-18T12:55:03;100307.99;;;27.58;53.49
60920;BME280;59039;52.108;19.942;2022-08-18T12:57:29;100307.12;;;27.59;53.62
60920;BME280;59039;52.108;19.942;2022-08-18T12:59:54;100307.72;;;27.61;53.94
60920;BME280;59039;52.108;19.942;2022-08-18T13:02:20;100306.02;;;27.64;53.68
60920;BME280;59039;52.108;19.942;2022-08-18T13:04:46;100302.23;;;27.66;53.27
60920;BME280;59039;52.108;19.942;2022-08-18T13:07:12;100303.35;;;27.68;52.94
60920;BME280;59039;52.108;19.942;2022-08-18T13:09:38;100298.66;;;27.68;52.64
60920;BME280;59039;52.108;19.942;2022-08-18T13:12:09;100290.84;;;27.68;52.83
60920;BME280;59039;52.108;19.942;2022-08-18T13:14:35;100281.41;;;27.67;52.71
60920;BME280;59039;52.108;19.942;2022-08-18T13:17:01;100277.88;;;27.66;52.74
60920;BME280;59039;52.108;19.942;2022-08-18T13:19:26;100274.25;;;27.66;52.52
60920;BME280;59039;52.108;19.942;2022-08-18T13:21:52;100277.98;;;27.65;52.35
60920;BME280;59039;52.108;19.942;2022-08-18T13:24:17;100278.94;;;27.65;52.52
60920;BME280;59039;52.108;19.942;2022-08-18T13:26:45;100278.27;;;27.65;52.11
60920;BME280;59039;52.108;19.942;2022-08-18T13:29:10;100279.95;;;27.66;52.30
60920;BME280;59039;52.108;19.942;2022-08-18T13:31:37;100275.70;;;27.66;51.86
60920;BME280;59039;52.108;19.942;2022-08-18T13:34:03;100276.04;;;27.66;52.25
60920;BME280;59039;52.108;19.942;2022-08-18T13:36:29;100279.01;;;27.67;52.35
60920;BME280;59039;52.108;19.942;2022-08-18T13:38:55;100277.61;;;27.68;51.86
60920;BME280;59039;52.108;19.942;2022-08-18T13:41:20;100278.69;;;27.68;51.98
60920;BME280;59039;52.108;19.942;2022-08-18T13:43:46;100275.45;;;27.69;51.68
60920;BME280;59039;52.108;19.942;2022-08-18T13:46:16;100277.91;;;27.69;51.72
60920;BME280;59039;52.108;19.942;2022-08-18T13:48:42;100279.45;;;27.70;51.85
60920;BME280;59039;52.108;19.942;2022-08-18T13:51:09;100281.20;;;27.71;51.79
60920;BME280;59039;52.108;19.942;2022-08-18T13:53:39;100285.06;;;27.72;51.35
60920;BME280;59039;52.108;19.942;2022-08-18T13:56:05;100280.88;;;27.74;51.54
60920;BME280;59039;52.108;19.942;2022-08-18T13:58:30;100283.17;;;27.75;51.42
60920;BME280;59039;52.108;19.942;2022-08-18T14:01:02;100279.54;;;27.75;50.83
60920;BME280;59039;52.108;19.942;2022-08-18T14:03:29;100281.98;;;27.75;51.31
60920;BME280;59039;52.108;19.942;2022-08-18T14:05:54;100288.72;;;27.76;51.41
60920;BME280;59039;52.108;19.942;2022-08-18T14:08:19;100287.81;;;27.77;51.36
60920;BME280;59039;52.108;19.942;2022-08-18T14:10:48;100288.14;;;27.77;51.26
60920;BME280;59039;52.108;19.942;2022-08-18T14:13:15;100291.11;;;27.78;51.47
60920;BME280;59039;52.108;19.942;2022-08-18T14:15:41;100297.05;;;27.79;51.55
60920;BME280;59039;52.108;19.942;2022-08-18T14:18:06;100302.53;;;27.80;51.69
60920;BME280;59039;52.108;19.942;2022-08-18T14:20:32;100305.66;;;27.81;51.96
60920;BME280;59039;52.108;19.942;2022-08-18T14:22:58;100303.65;;;27.82;52.14
60920;BME280;59039;52.108;19.942;2022-08-18T14:25:24;100303.54;;;27.82;52.28
60920;BME280;59039;52.108;19.942;2022-08-18T14:27:49;100304.19;;;27.84;52.37
60920;BME280;59039;52.108;19.942;2022-08-18T14:30:14;100304.98;;;27.85;52.27
60920;BME280;59039;52.108;19.942;2022-08-18T14:32:41;100305.25;;;27.85;52.17
60920;BME280;59039;52.108;19.942;2022-08-18T14:35:09;100302.24;;;27.87;52.39
60920;BME280;59039;52.108;19.942;2022-08-18T14:37:34;100298.39;;;27.86;52.34
60920;BME280;59039;52.108;19.942;2022-08-18T14:40:00;100301.46;;;27.87;52.30